Time;durP1;ratioP1;P1;durP2;ratioP2;P2;SDS_P1;SDS_P2;PMS_P1;PMS_P2;Temp;Humidity;BMP_temperature;BMP_pressure;BME280_temperature;BME280_humidity;BME280_pressure;Samples;Min_cycle;Max_cycle;Signal;HPM_P1;HPM_P2
2021/11/23 00:01:02;;;;;;;;;;;3.30;41.40;;;;;;4390188;32;19964;-40
2021/11/23 00:03:28;;;;;;;;;;;3.40;41.40;;;;;;4390689;32;20005;-37
2021/11/23 00:05:55;;;;;;;;;;;3.30;41.10;;;;;;4390320;32;20029;-35
2021/11/23 00:08:21;;;;;;;;;;;3.40;41.20;;;;;;4390739;32;19976;-38
2021/11/23 00:10:47;;;;;;;;;;;3.40;40.90;;;;;;4376147;32;19958;-38
2021/11/23 00:13:15;;;;;;;;;;;3.40;40.90;;;;;;4390069;32;19977;-38
2021/11/23 00:15:41;;;;;;;;;;;3.30;40.80;;;;;;4389895;32;19988;-38
2021/11/23 00:18:09;;;;;;;;;;;3.30;40.90;;;;;;4389841;32;20350;-37
2021/11/23 00:20:38;;;;;;;;;;;3.30;40.90;;;;;;4382431;32;20123;-38
2021/11/23 00:23:04;;;;;;;;;;;3.30;40.80;;;;;;4360910;32;20470;-37
2021/11/23 00:25:31;;;;;;;;;;;3.30;40.70;;;;;;4374993;32;20024;-38
2021/11/23 00:27:58;;;;;;;;;;;3.30;40.40;;;;;;4374798;32;19966;-39
2021/11/23 00:30:24;;;;;;;;;;;3.20;40.00;;;;;;4374571;32;20001;-37
2021/11/23 00:32:52;;;;;;;;;;;3.20;39.90;;;;;;4374354;32;20439;-38
2021/11/23 00:35:18;;;;;;;;;;;3.20;40.30;;;;;;4374832;32;19969;-38
2021/11/23 00:37:47;;;;;;;;;;;3.20;40.10;;;;;;4374444;32;20492;-38
2021/11/23 00:40:14;;;;;;;;;;;3.20;40.10;;;;;;4374333;32;19966;-37
2021/11/23 00:42:40;;;;;;;;;;;3.20;40.20;;;;;;4374100;32;20000;-36
2021/11/23 00:45:07;;;;;;;;;;;3.10;40.00;;;;;;4373829;32;20037;-37
2021/11/23 00:47:33;;;;;;;;;;;3.10;39.60;;;;;;4374591;32;20063;-37
2021/11/23 00:50:00;;;;;;;;;;;3.00;39.50;;;;;;4374988;32;20037;-38
2021/11/23 00:52:26;;;;;;;;;;;3.00;39.10;;;;;;4375095;32;20374;-37
2021/11/23 00:54:52;;;;;;;;;;;3.00;39.00;;;;;;4375034;32;19962;-39
2021/11/23 00:57:18;;;;;;;;;;;2.90;39.20;;;;;;4375054;32;19965;-38
2021/11/23 00:59:44;;;;;;;;;;;2.80;39.30;;;;;;4374647;32;19970;-38
2021/11/23 01:02:11;;;;;;;;;;;2.80;39.30;;;;;;4360447;32;19962;-38
2021/11/23 01:04:37;;;;;;;;;;;2.80;39.10;;;;;;4374068;32;19989;-38
2021/11/23 01:07:04;;;;;;;;;;;2.70;39.10;;;;;;4374321;32;20135;-37
2021/11/23 01:09:30;;;;;;;;;;;2.70;39.00;;;;;;4374338;32;19972;-38
2021/11/23 01:11:56;;;;;;;;;;;2.70;38.90;;;;;;4374452;32;20030;-39
2021/11/23 01:14:23;;;;;;;;;;;2.70;38.80;;;;;;4374224;32;20139;-38
2021/11/23 01:16:49;;;;;;;;;;;2.70;38.40;;;;;;4374189;32;20024;-37
2021/11/23 01:19:16;;;;;;;;;;;2.70;38.50;;;;;;4374282;32;20082;-36
2021/11/23 01:21:43;;;;;;;;;;;2.70;38.90;;;;;;4374171;32;19959;-37
2021/11/23 01:24:10;;;;;;;;;;;2.60;38.90;;;;;;4372580;32;19967;-38
2021/11/23 01:26:36;;;;;;;;;;;2.60;39.10;;;;;;4373912;32;19985;-38
2021/11/23 01:29:04;;;;;;;;;;;2.60;39.30;;;;;;4373927;32;20026;-37
2021/11/23 01:31:30;;;;;;;;;;;2.60;39.30;;;;;;4373667;32;19977;-37
2021/11/23 01:33:57;;;;;;;;;;;2.50;39.50;;;;;;4374242;32;19970;-37
2021/11/23 01:36:23;;;;;;;;;;;2.50;39.60;;;;;;4374087;32;19966;-37
2021/11/23 01:38:49;;;;;;;;;;;2.60;39.50;;;;;;4380038;32;20437;-40
2021/11/23 01:41:15;;;;;;;;;;;2.60;39.70;;;;;;4388878;32;20038;-38
2021/11/23 01:43:42;;;;;;;;;;;2.60;39.70;;;;;;4388499;32;19966;-38
2021/11/23 01:46:09;;;;;;;;;;;2.60;39.90;;;;;;4388696;32;20422;-37
2021/11/23 01:48:35;;;;;;;;;;;2.60;39.80;;;;;;4388569;32;20579;-37
2021/11/23 01:51:02;;;;;;;;;;;2.60;39.90;;;;;;4388254;32;20455;-40
2021/11/23 01:53:28;;;;;;;;;;;2.60;39.90;;;;;;4389527;32;19965;-36
2021/11/23 01:55:54;;;;;;;;;;;2.60;39.50;;;;;;4362338;32;20004;-38
2021/11/23 01:58:21;;;;;;;;;;;2.50;39.30;;;;;;4388402;32;20412;-37
2021/11/23 02:00:47;;;;;;;;;;;2.50;39.50;;;;;;4388469;32;19968;-37
2021/11/23 02:03:13;;;;;;;;;;;2.40;39.40;;;;;;4388559;32;20405;-36
2021/11/23 02:05:40;;;;;;;;;;;2.40;40.10;;;;;;4388071;32;19977;-36
2021/11/23 02:08:06;;;;;;;;;;;2.30;39.40;;;;;;4388681;32;20076;-37
2021/11/23 02:10:33;;;;;;;;;;;2.30;39.30;;;;;;4387800;32;19973;-37
2021/11/23 02:13:00;;;;;;;;;;;2.30;39.50;;;;;;4374208;32;19975;-37
2021/11/23 02:15:26;;;;;;;;;;;2.20;39.50;;;;;;4374363;32;19968;-37
2021/11/23 02:17:52;;;;;;;;;;;2.20;39.10;;;;;;4374106;32;20001;-37
2021/11/23 02:20:20;;;;;;;;;;;2.20;38.80;;;;;;4382264;32;19974;-37
2021/11/23 02:22:46;;;;;;;;;;;2.10;39.10;;;;;;4373142;32;19989;-38
2021/11/23 02:25:13;;;;;;;;;;;2.10;39.30;;;;;;4373240;32;20429;-38
2021/11/23 02:27:39;;;;;;;;;;;2.10;39.20;;;;;;4372766;32;20000;-37
2021/11/23 02:30:07;;;;;;;;;;;2.10;39.30;;;;;;4373179;32;20047;-37
2021/11/23 02:32:43;;;;;;;;;;;2.10;39.90;;;;;;4372622;32;19955;-35
2021/11/23 02:35:10;;;;;;;;;;;2.00;39.10;;;;;;4373267;32;19970;-38
2021/11/23 02:37:43;;;;;;;;;;;2.00;39.10;;;;;;4372922;32;19970;-37
2021/11/23 02:40:10;;;;;;;;;;;2.00;39.10;;;;;;4372551;32;19960;-37
2021/11/23 02:42:36;;;;;;;;;;;2.00;39.20;;;;;;4373078;32;20046;-38
2021/11/23 02:45:04;;;;;;;;;;;1.90;39.30;;;;;;4372956;32;19969;-37
2021/11/23 02:47:34;;;;;;;;;;;1.90;39.40;;;;;;4373271;32;19969;-38
2021/11/23 02:50:00;;;;;;;;;;;1.90;39.50;;;;;;4373231;32;20069;-38
2021/11/23 02:52:27;;;;;;;;;;;1.80;39.60;;;;;;4372848;32;19977;-37
2021/11/23 02:54:57;;;;;;;;;;;1.80;39.80;;;;;;4373065;32;20024;-38
2021/11/23 02:57:27;;;;;;;;;;;1.70;39.80;;;;;;4372624;32;19963;-39
2021/11/23 02:59:54;;;;;;;;;;;1.70;40.00;;;;;;4373027;32;19989;-38
2021/11/23 03:02:20;;;;;;;;;;;1.70;40.10;;;;;;4372737;32;19955;-36
2021/11/23 03:04:53;;;;;;;;;;;1.70;40.10;;;;;;4372649;32;19977;-39
2021/11/23 03:07:20;;;;;;;;;;;1.70;40.00;;;;;;4359046;32;20575;-37
2021/11/23 03:09:47;;;;;;;;;;;1.60;40.00;;;;;;4374755;32;19993;-37
2021/11/23 03:12:19;;;;;;;;;;;1.60;40.20;;;;;;4376073;32;19966;-39
2021/11/23 03:14:45;;;;;;;;;;;1.60;40.30;;;;;;4375631;32;20475;-37
2021/11/23 03:17:12;;;;;;;;;;;1.60;40.30;;;;;;4375762;32;19970;-38
2021/11/23 03:19:40;;;;;;;;;;;1.50;40.40;;;;;;4375727;32;20411;-39
2021/11/23 03:22:07;;;;;;;;;;;1.60;40.50;;;;;;4376120;32;20056;-36
2021/11/23 03:24:33;;;;;;;;;;;1.50;40.50;;;;;;4377232;32;19969;-39
2021/11/23 03:27:00;;;;;;;;;;;1.50;40.50;;;;;;4374220;32;19993;-38
2021/11/23 03:29:27;;;;;;;;;;;1.50;40.60;;;;;;4375597;32;20548;-39
2021/11/23 03:31:54;;;;;;;;;;;1.50;40.50;;;;;;4375857;32;20046;-38
2021/11/23 03:34:21;;;;;;;;;;;1.50;40.50;;;;;;4375594;32;19969;-38
2021/11/23 03:36:47;;;;;;;;;;;1.50;40.50;;;;;;4375269;32;19969;-37
2021/11/23 03:39:13;;;;;;;;;;;1.50;40.50;;;;;;4383844;32;19986;-37
2021/11/23 03:41:40;;;;;;;;;;;1.50;40.60;;;;;;4390423;32;19962;-39
2021/11/23 03:44:06;;;;;;;;;;;1.50;40.50;;;;;;4390609;32;19965;-37
2021/11/23 03:46:32;;;;;;;;;;;1.50;40.50;;;;;;4390472;32;19985;-37
2021/11/23 03:48:59;;;;;;;;;;;1.50;40.70;;;;;;4390294;32;19962;-38
2021/11/23 03:51:25;;;;;;;;;;;1.60;40.70;;;;;;4390372;32;20490;-37
2021/11/23 03:53:52;;;;;;;;;;;1.60;40.50;;;;;;4390493;32;20069;-37
2021/11/23 03:56:18;;;;;;;;;;;1.70;40.70;;;;;;4390357;32;20013;-39
2021/11/23 03:58:45;;;;;;;;;;;1.70;40.50;;;;;;4390200;32;20039;-36
2021/11/23 04:01:11;;;;;;;;;;;1.70;40.50;;;;;;4376365;32;20413;-38
2021/11/23 04:03:37;;;;;;;;;;;1.70;40.40;;;;;;4390113;32;20498;-35
2021/11/23 04:06:04;;;;;;;;;;;1.70;40.50;;;;;;4375940;32;19977;-39
2021/11/23 04:08:30;;;;;;;;;;;1.70;40.60;;;;;;4376238;32;19981;-37
2021/11/23 04:10:56;;;;;;;;;;;1.70;40.60;;;;;;4389902;32;20370;-38
2021/11/23 04:13:23;;;;;;;;;;;1.70;40.70;;;;;;4390354;32;20054;-38
2021/11/23 04:15:49;;;;;;;;;;;1.70;40.70;;;;;;4389915;32;19961;-38
2021/11/23 04:18:16;;;;;;;;;;;1.60;40.70;;;;;;4375540;32;20037;-38
2021/11/23 04:20:42;;;;;;;;;;;1.60;40.70;;;;;;4381738;32;19967;-37
2021/11/23 04:23:08;;;;;;;;;;;1.60;40.80;;;;;;4374610;32;20363;-38
2021/11/23 04:25:34;;;;;;;;;;;1.60;40.90;;;;;;4375024;32;19970;-38
2021/11/23 04:28:01;;;;;;;;;;;1.60;40.90;;;;;;4374900;32;19967;-37
2021/11/23 04:30:27;;;;;;;;;;;1.50;41.00;;;;;;4360637;32;20447;-38
2021/11/23 04:32:53;;;;;;;;;;;1.50;41.10;;;;;;4374779;32;19958;-38
2021/11/23 04:35:19;;;;;;;;;;;1.50;41.20;;;;;;4374596;32;19963;-38
2021/11/23 04:37:46;;;;;;;;;;;1.50;41.10;;;;;;4360632;32;19974;-39
2021/11/23 04:40:14;;;;;;;;;;;1.60;41.20;;;;;;4374809;32;19985;-38
2021/11/23 04:42:40;;;;;;;;;;;1.60;41.20;;;;;;4374595;32;19969;-35
2021/11/23 04:45:09;;;;;;;;;;;1.70;41.00;;;;;;4374982;32;19962;-38
2021/11/23 04:47:36;;;;;;;;;;;1.70;41.10;;;;;;4374663;32;19969;-37
2021/11/23 04:50:03;;;;;;;;;;;1.70;41.00;;;;;;4374562;32;19977;-45
2021/11/23 04:52:30;;;;;;;;;;;1.70;41.10;;;;;;4372508;32;20009;-37
2021/11/23 04:54:57;;;;;;;;;;;1.70;41.30;;;;;;4374555;32;20127;-37
2021/11/23 04:57:23;;;;;;;;;;;1.70;41.60;;;;;;4373982;32;19968;-36
2021/11/23 04:59:49;;;;;;;;;;;1.60;41.70;;;;;;4374344;32;19966;-38
2021/11/23 05:02:16;;;;;;;;;;;1.60;41.70;;;;;;4373714;32;19973;-36
2021/11/23 05:04:42;;;;;;;;;;;1.60;41.70;;;;;;4373817;32;20054;-39
2021/11/23 05:07:08;;;;;;;;;;;1.60;41.80;;;;;;4341979;33;19975;-39
2021/11/23 05:09:34;;;;;;;;;;;1.60;42.10;;;;;;4341803;33;19974;-38
2021/11/23 05:12:00;;;;;;;;;;;1.60;42.30;;;;;;4341867;33;20082;-38
2021/11/23 05:14:27;;;;;;;;;;;1.60;42.50;;;;;;4341967;33;19996;-39
2021/11/23 05:16:53;;;;;;;;;;;1.60;42.70;;;;;;4342015;33;19994;-38
2021/11/23 05:19:19;;;;;;;;;;;1.60;42.80;;;;;;4341525;33;19987;-38
2021/11/23 05:21:45;;;;;;;;;;;1.60;42.80;;;;;;4341295;33;20002;-36
2021/11/23 05:24:13;;;;;;;;;;;1.70;42.70;;;;;;4341859;33;19982;-37
2021/11/23 05:26:40;;;;;;;;;;;1.80;42.80;;;;;;4341667;33;20051;-38
2021/11/23 05:29:06;;;;;;;;;;;1.80;42.60;;;;;;4341649;33;19966;-40
2021/11/23 05:31:33;;;;;;;;;;;1.90;42.70;;;;;;4342483;33;19989;-39
2021/11/23 05:33:59;;;;;;;;;;;1.90;42.60;;;;;;4342280;33;20416;-37
2021/11/23 05:36:26;;;;;;;;;;;1.90;42.30;;;;;;4341027;33;19974;-38
2021/11/23 05:38:52;;;;;;;;;;;1.90;42.30;;;;;;4346631;32;20434;-38
2021/11/23 05:41:18;;;;;;;;;;;1.90;42.10;;;;;;4356546;32;20006;-39
2021/11/23 05:43:45;;;;;;;;;;;1.80;41.90;;;;;;4346528;32;20039;-38
2021/11/23 05:46:11;;;;;;;;;;;1.80;41.90;;;;;;4373927;32;19978;-38
2021/11/23 05:48:37;;;;;;;;;;;1.80;41.90;;;;;;4373299;32;20389;-40
2021/11/23 05:51:04;;;;;;;;;;;1.90;41.90;;;;;;4373262;32;19954;-38
2021/11/23 05:53:31;;;;;;;;;;;2.00;42.20;;;;;;4373164;32;19973;-38
2021/11/23 05:55:57;;;;;;;;;;;2.10;42.20;;;;;;4355349;32;20446;-39
2021/11/23 05:58:24;;;;;;;;;;;2.30;42.10;;;;;;4356066;32;19982;-47
2021/11/23 06:00:50;;;;;;;;;;;2.30;42.10;;;;;;4355864;32;19977;-38
2021/11/23 06:03:16;;;;;;;;;;;2.40;42.20;;;;;;4355770;32;19974;-38
2021/11/23 06:05:43;;;;;;;;;;;2.50;42.20;;;;;;4356057;32;20020;-39
2021/11/23 06:08:09;;;;;;;;;;;2.60;42.30;;;;;;4343762;32;20027;-37
2021/11/23 06:10:36;;;;;;;;;;;2.80;41.90;;;;;;4355960;32;20000;-38
2021/11/23 06:13:02;;;;;;;;;;;2.80;42.00;;;;;;4355403;32;19992;-35
2021/11/23 06:15:29;;;;;;;;;;;3.00;42.30;;;;;;4355857;32;20010;-38
2021/11/23 06:18:02;;;;;;;;;;;3.20;41.80;;;;;;4355927;32;19998;-40
2021/11/23 06:20:32;;;;;;;;;;;3.20;41.30;;;;;;4332449;32;20058;-39
2021/11/23 06:23:02;;;;;;;;;;;3.20;40.80;;;;;;4355639;32;19981;-38
2021/11/23 06:25:29;;;;;;;;;;;3.20;39.90;;;;;;4355607;32;20008;-39
2021/11/23 06:27:55;;;;;;;;;;;3.00;39.40;;;;;;4355490;32;19990;-38
2021/11/23 06:30:22;;;;;;;;;;;2.90;39.10;;;;;;4343342;32;19971;-39
2021/11/23 06:32:48;;;;;;;;;;;2.80;38.90;;;;;;4356438;32;20594;-38
2021/11/23 06:35:15;;;;;;;;;;;2.50;39.30;;;;;;4357950;32;20436;-39
2021/11/23 06:37:41;;;;;;;;;;;2.50;39.30;;;;;;4356727;32;19974;-39
2021/11/23 06:40:08;;;;;;;;;;;2.40;39.30;;;;;;4371787;32;20417;-50
2021/11/23 06:42:35;;;;;;;;;;;2.40;39.10;;;;;;4372581;32;20022;-39
2021/11/23 06:45:01;;;;;;;;;;;2.40;38.80;;;;;;4372309;32;20005;-38
2021/11/23 06:47:28;;;;;;;;;;;2.40;38.70;;;;;;4373049;32;19987;-37
2021/11/23 06:49:54;;;;;;;;;;;2.50;38.60;;;;;;4372745;32;19981;-39
2021/11/23 06:52:23;;;;;;;;;;;2.50;38.30;;;;;;4372616;32;19974;-39
2021/11/23 06:54:49;;;;;;;;;;;2.60;38.30;;;;;;4372621;32;20013;-37
2021/11/23 06:57:15;;;;;;;;;;;2.60;38.30;;;;;;4373248;32;19970;-40
2021/11/23 06:59:44;;;;;;;;;;;2.70;38.40;;;;;;4372618;32;20399;-39
2021/11/23 07:02:10;;;;;;;;;;;2.80;38.40;;;;;;4359009;32;20001;-38
2021/11/23 07:04:36;;;;;;;;;;;2.90;38.10;;;;;;4372275;32;20049;-39
2021/11/23 07:07:03;;;;;;;;;;;3.00;37.40;;;;;;4372606;32;20051;-39
2021/11/23 07:09:29;;;;;;;;;;;3.10;37.60;;;;;;4373237;32;19982;-38
2021/11/23 07:11:55;;;;;;;;;;;3.20;37.40;;;;;;4372598;32;20430;-39
2021/11/23 07:14:21;;;;;;;;;;;3.30;37.40;;;;;;4372342;32;20364;-38
2021/11/23 07:16:48;;;;;;;;;;;3.40;37.30;;;;;;4372774;32;19984;-38
2021/11/23 07:19:14;;;;;;;;;;;3.40;36.80;;;;;;4346825;32;19974;-40
2021/11/23 07:21:41;;;;;;;;;;;3.40;36.20;;;;;;4372126;32;19962;-39
2021/11/23 07:24:07;;;;;;;;;;;3.30;36.50;;;;;;4370806;32;19996;-38
2021/11/23 07:26:34;;;;;;;;;;;3.30;36.80;;;;;;4372796;32;19974;-40
2021/11/23 07:29:00;;;;;;;;;;;3.30;36.80;;;;;;4372471;32;20041;-39
2021/11/23 07:31:27;;;;;;;;;;;3.20;36.70;;;;;;4370888;32;20041;-39
2021/11/23 07:33:53;;;;;;;;;;;3.10;36.20;;;;;;4372563;32;19981;-37
2021/11/23 07:36:20;;;;;;;;;;;3.00;36.60;;;;;;4372919;32;19955;-37
2021/11/23 07:38:47;;;;;;;;;;;2.80;36.80;;;;;;4377797;32;19962;-37
2021/11/23 07:41:13;;;;;;;;;;;2.70;37.10;;;;;;4388870;32;20049;-38
2021/11/23 07:43:40;;;;;;;;;;;2.60;37.50;;;;;;4388846;32;19966;-39
2021/11/23 07:46:06;;;;;;;;;;;2.60;37.70;;;;;;4387268;32;19985;-37
2021/11/23 07:48:32;;;;;;;;;;;2.60;37.50;;;;;;4387419;32;19974;-37
2021/11/23 07:50:58;;;;;;;;;;;2.60;37.60;;;;;;4387253;32;20046;-39
2021/11/23 07:53:25;;;;;;;;;;;2.50;37.70;;;;;;4387655;32;20063;-39
2021/11/23 07:55:51;;;;;;;;;;;2.60;37.90;;;;;;4390097;32;19973;-35
2021/11/23 07:58:18;;;;;;;;;;;2.60;37.70;;;;;;4357510;32;19974;-40
2021/11/23 08:00:44;;;;;;;;;;;2.60;37.70;;;;;;4357452;32;19998;-36
2021/11/23 08:03:11;;;;;;;;;;;2.60;37.80;;;;;;4357895;32;19998;-39
2021/11/23 08:05:40;;;;;;;;;;;2.60;37.70;;;;;;4357627;32;19982;-39
2021/11/23 08:08:08;;;;;;;;;;;2.60;37.60;;;;;;4357715;32;20401;-39
2021/11/23 08:10:34;;;;;;;;;;;2.60;37.60;;;;;;4357444;32;20046;-39
2021/11/23 08:13:01;;;;;;;;;;;2.60;37.70;;;;;;4357367;32;19977;-39
2021/11/23 08:15:27;;;;;;;;;;;2.60;38.00;;;;;;4357144;32;20001;-39
2021/11/23 08:17:53;;;;;;;;;;;2.70;38.10;;;;;;4357282;32;20067;-41
2021/11/23 08:20:19;;;;;;;;;;;2.80;38.00;;;;;;4351440;32;19975;-40
2021/11/23 08:22:48;;;;;;;;;;;2.90;37.80;;;;;;4329506;33;20013;-37
2021/11/23 08:25:14;;;;;;;;;;;3.00;37.90;;;;;;4342118;33;19978;-39
2021/11/23 08:27:41;;;;;;;;;;;3.00;37.60;;;;;;4329846;33;19975;-39
2021/11/23 08:30:08;;;;;;;;;;;3.10;37.50;;;;;;4356075;32;20001;-39
2021/11/23 08:32:34;;;;;;;;;;;3.00;37.30;;;;;;4374951;32;20440;-39
2021/11/23 08:35:01;;;;;;;;;;;3.00;37.20;;;;;;4374684;32;19973;-37
2021/11/23 08:37:27;;;;;;;;;;;3.00;37.20;;;;;;4374830;32;19961;-39
2021/11/23 08:39:55;;;;;;;;;;;3.00;37.40;;;;;;4374621;32;19970;-36
2021/11/23 08:42:21;;;;;;;;;;;3.00;37.70;;;;;;4375120;32;19963;-39
2021/11/23 08:44:48;;;;;;;;;;;3.00;37.40;;;;;;4360414;32;19977;-37
2021/11/23 08:47:15;;;;;;;;;;;3.00;37.40;;;;;;4374557;32;20029;-39
2021/11/23 08:49:41;;;;;;;;;;;3.00;37.50;;;;;;4374355;32;19962;-39
2021/11/23 08:52:07;;;;;;;;;;;3.10;37.30;;;;;;4374374;32;19997;-40
2021/11/23 08:54:34;;;;;;;;;;;3.10;37.30;;;;;;4374422;32;20009;-39
2021/11/23 08:57:05;;;;;;;;;;;3.20;37.30;;;;;;4373956;32;19962;-41
2021/11/23 08:59:41;;;;;;;;;;;3.30;36.60;;;;;;4361002;32;19979;-40
2021/11/23 09:02:07;;;;;;;;;;;3.20;36.80;;;;;;4374194;32;20383;-38
2021/11/23 09:04:34;;;;;;;;;;;3.20;36.70;;;;;;4373695;32;20437;-40
2021/11/23 09:07:06;;;;;;;;;;;3.10;36.80;;;;;;4373305;32;20047;-40
2021/11/23 09:09:33;;;;;;;;;;;3.10;37.10;;;;;;4374452;32;20535;-40
2021/11/23 09:12:02;;;;;;;;;;;3.10;37.20;;;;;;4373784;32;19960;-39
2021/11/23 09:14:33;;;;;;;;;;;3.10;37.20;;;;;;4373983;32;19972;-39
2021/11/23 09:17:00;;;;;;;;;;;3.10;37.20;;;;;;4374050;32;20000;-39
2021/11/23 09:19:26;;;;;;;;;;;3.20;37.70;;;;;;4359978;32;19981;-36
2021/11/23 09:21:52;;;;;;;;;;;3.20;37.50;;;;;;4372305;32;20111;-39
2021/11/23 09:24:19;;;;;;;;;;;3.20;38.20;;;;;;4372048;32;19970;-39
2021/11/23 09:26:45;;;;;;;;;;;3.30;37.60;;;;;;4373313;32;20087;-39
2021/11/23 09:29:13;;;;;;;;;;;3.30;37.60;;;;;;4373844;32;19963;-39
2021/11/23 09:31:40;;;;;;;;;;;3.30;37.60;;;;;;4374048;32;20398;-40
2021/11/23 09:34:07;;;;;;;;;;;3.40;37.40;;;;;;4373798;32;20063;-38
2021/11/23 09:36:33;;;;;;;;;;;3.40;37.10;;;;;;4373509;32;20422;-38
2021/11/23 09:38:59;;;;;;;;;;;3.30;37.00;;;;;;4376885;32;19996;-40
2021/11/23 09:41:26;;;;;;;;;;;3.30;37.80;;;;;;4388361;32;19965;-39
2021/11/23 09:43:52;;;;;;;;;;;3.30;37.10;;;;;;4388574;32;20033;-37
2021/11/23 09:46:18;;;;;;;;;;;3.20;37.20;;;;;;4388566;32;19992;-40
2021/11/23 09:48:45;;;;;;;;;;;3.20;37.50;;;;;;4388458;32;19989;-40
2021/11/23 09:51:23;;;;;;;;;;;3.20;37.50;;;;;;4355166;32;19981;-40
2021/11/23 09:53:50;;;;;;;;;;;3.30;37.50;;;;;;4356044;32;20054;-39
2021/11/23 09:56:16;;;;;;;;;;;3.30;37.40;;;;;;4356265;32;19981;-40
2021/11/23 09:58:42;;;;;;;;;;;3.20;37.50;;;;;;4331097;32;19986;-41
2021/11/23 10:01:10;;;;;;;;;;;3.30;37.70;;;;;;4355401;32;19974;-40
2021/11/23 10:03:36;;;;;;;;;;;3.40;37.80;;;;;;4355720;32;19990;-40
2021/11/23 10:06:18;;;;;;;;;;;3.50;37.70;;;;;;4355406;32;20485;-38
2021/11/23 10:08:44;;;;;;;;;;;3.60;37.50;;;;;;4355872;32;20080;-41
2021/11/23 10:11:11;;;;;;;;;;;3.70;37.40;;;;;;4355724;32;19962;-41
2021/11/23 10:13:39;;;;;;;;;;;3.80;36.80;;;;;;4355700;32;20136;-41
2021/11/23 10:16:05;;;;;;;;;;;3.80;36.70;;;;;;4355493;32;20523;-40
2021/11/23 10:18:31;;;;;;;;;;;3.80;36.60;;;;;;4342782;32;19989;-40
2021/11/23 10:20:59;;;;;;;;;;;3.80;36.50;;;;;;4355414;32;20063;-40
2021/11/23 10:23:33;;;;;;;;;;;3.70;36.40;;;;;;4373359;32;20053;-39
2021/11/23 10:26:14;;;;;;;;;;;3.70;36.60;;;;;;4373047;32;19972;-36
2021/11/23 10:29:02;;;;;;;;;;;3.70;36.50;;;;;;4373145;32;20403;-40
2021/11/23 10:31:34;;;;;;;;;;;3.60;36.50;;;;;;4372507;32;19977;-37
2021/11/23 10:34:02;;;;;;;;;;;3.50;36.70;;;;;;4372689;32;19993;-38
2021/11/23 10:36:37;;;;;;;;;;;3.40;37.00;;;;;;4372995;32;19961;-40
2021/11/23 10:39:20;;;;;;;;;;;3.40;37.20;;;;;;4372524;32;19966;-39
2021/11/23 10:41:51;;;;;;;;;;;3.40;37.20;;;;;;4372605;32;19974;-41
2021/11/23 10:44:18;;;;;;;;;;;3.40;37.20;;;;;;4372687;32;19974;-41
2021/11/23 10:47:01;;;;;;;;;;;3.40;37.40;;;;;;4372620;32;19997;-39
2021/11/23 10:49:28;;;;;;;;;;;3.40;37.50;;;;;;4372858;32;19982;-41
2021/11/23 10:51:54;;;;;;;;;;;3.30;37.60;;;;;;4358876;32;19958;-40
2021/11/23 10:54:20;;;;;;;;;;;3.30;37.80;;;;;;4372421;32;19997;-40
2021/11/23 10:57:01;;;;;;;;;;;3.40;37.90;;;;;;4372940;32;20065;-40
2021/11/23 10:59:27;;;;;;;;;;;3.40;37.90;;;;;;4358646;32;20477;-40
2021/11/23 11:01:55;;;;;;;;;;;3.40;37.50;;;;;;4372756;32;19970;-42
2021/11/23 11:04:21;;;;;;;;;;;3.50;37.80;;;;;;4372466;32;20483;-43
2021/11/23 11:06:48;;;;;;;;;;;3.50;37.90;;;;;;4372406;32;19977;-40
2021/11/23 11:09:15;;;;;;;;;;;3.50;37.80;;;;;;4372357;32;19965;-37
2021/11/23 11:11:41;;;;;;;;;;;3.40;37.60;;;;;;4372215;32;19969;-40
2021/11/23 11:14:07;;;;;;;;;;;3.30;37.70;;;;;;4358337;32;20005;-41
2021/11/23 11:16:37;;;;;;;;;;;3.30;37.90;;;;;;4372904;32;20058;-39
2021/11/23 11:19:07;;;;;;;;;;;3.30;37.90;;;;;;4358688;32;19986;-39
2021/11/23 11:21:49;;;;;;;;;;;3.30;37.70;;;;;;4372454;32;20435;-39
2021/11/23 11:24:34;;;;;;;;;;;3.20;37.80;;;;;;4372338;32;19973;-39
2021/11/23 11:27:35;;;;;;;;;;;3.10;38.30;;;;;;4372660;32;19969;-41
2021/11/23 11:29:53;;;;;;;;;;;3.00;38.60;;;;;;4372320;32;20001;-39
2021/11/23 11:32:35;;;;;;;;;;;3.00;38.60;;;;;;4373302;32;19965;-39
2021/11/23 11:35:23;;;;;;;;;;;2.90;38.50;;;;;;4373787;32;20425;-40
2021/11/23 11:37:51;;;;;;;;;;;2.90;38.50;;;;;;4375480;32;19965;-37
2021/11/23 11:40:27;;;;;;;;;;;2.80;38.70;;;;;;4386680;32;19968;-40
2021/11/23 11:43:01;;;;;;;;;;;2.70;38.80;;;;;;4390738;32;19966;-40
2021/11/23 11:45:38;;;;;;;;;;;2.70;39.00;;;;;;4390294;32;19981;-39
2021/11/23 11:51:06;;;;;;;;;;;2.60;39.20;;;;;;4357689;32;20033;-41
2021/11/23 11:53:37;;;;;;;;;;;2.50;39.30;;;;;;4345526;32;19980;-41
2021/11/23 11:56:03;;;;;;;;;;;2.50;39.20;;;;;;4346290;32;19984;-41
2021/11/23 11:58:46;;;;;;;;;;;2.50;39.10;;;;;;4357894;32;19981;-39
2021/11/23 12:01:32;;;;;;;;;;;2.50;39.10;;;;;;4357670;32;20056;-42
2021/11/23 12:04:20;;;;;;;;;;;2.40;39.00;;;;;;4357281;32;19988;-41
2021/11/23 12:06:56;;;;;;;;;;;2.40;39.10;;;;;;4356986;32;20082;-41
2021/11/23 12:09:38;;;;;;;;;;;2.30;39.10;;;;;;4357296;32;19985;-41
2021/11/23 12:12:09;;;;;;;;;;;2.30;39.10;;;;;;4358275;32;19986;-40
2021/11/23 12:14:38;;;;;;;;;;;2.30;39.10;;;;;;4359446;32;19966;-36
2021/11/23 12:17:16;;;;;;;;;;;2.30;39.30;;;;;;4357795;32;19966;-41
2021/11/23 12:19:54;;;;;;;;;;;2.30;39.30;;;;;;4345189;32;20062;-40
2021/11/23 12:22:22;;;;;;;;;;;2.30;39.20;;;;;;4345375;32;20042;-40
2021/11/23 12:24:52;;;;;;;;;;;2.20;39.30;;;;;;4360499;32;19967;-35
2021/11/23 12:27:18;;;;;;;;;;;2.10;39.30;;;;;;4374468;32;19958;-41
2021/11/23 12:29:46;;;;;;;;;;;2.10;39.50;;;;;;4374762;32;20048;-41
2021/11/23 12:32:12;;;;;;;;;;;2.00;39.50;;;;;;4374777;32;19965;-41
2021/11/23 12:34:52;;;;;;;;;;;1.90;39.40;;;;;;4360741;32;19974;-40
2021/11/23 12:37:18;;;;;;;;;;;1.80;39.60;;;;;;4374895;32;20081;-39
2021/11/23 12:39:45;;;;;;;;;;;1.80;39.70;;;;;;4374067;32;19988;-39
2021/11/23 12:42:12;;;;;;;;;;;1.60;39.80;;;;;;4374700;32;20457;-41
2021/11/23 12:44:42;;;;;;;;;;;1.60;40.00;;;;;;4374380;32;19962;-39
2021/11/23 12:47:16;;;;;;;;;;;1.50;40.20;;;;;;4374533;32;20071;-39
2021/11/23 12:49:43;;;;;;;;;;;1.40;40.40;;;;;;4374569;32;19958;-39
2021/11/23 12:52:14;;;;;;;;;;;1.30;40.50;;;;;;4374637;32;20075;-39
2021/11/23 12:54:42;;;;;;;;;;;1.20;40.60;;;;;;4373850;32;19981;-39
2021/11/23 12:57:10;;;;;;;;;;;1.20;40.70;;;;;;4374140;32;19996;-38
2021/11/23 12:59:43;;;;;;;;;;;1.20;41.40;;;;;;4374395;32;19966;-40
2021/11/23 13:02:28;;;;;;;;;;;1.20;40.80;;;;;;4374289;32;20450;-36
2021/11/23 13:05:05;;;;;;;;;;;1.10;40.80;;;;;;4373678;32;19970;-39
2021/11/23 13:07:33;;;;;;;;;;;1.10;40.80;;;;;;4373998;32;19984;-39
2021/11/23 13:10:05;;;;;;;;;;;1.10;40.80;;;;;;4373915;32;19961;-39
2021/11/23 13:12:37;;;;;;;;;;;1.10;40.90;;;;;;4373479;32;20030;-39
2021/11/23 13:15:06;;;;;;;;;;;1.00;40.90;;;;;;4360216;32;19968;-39
2021/11/23 13:17:55;;;;;;;;;;;1.00;41.00;;;;;;4359620;32;20000;-39
2021/11/23 13:20:50;;;;;;;;;;;1.00;41.20;;;;;;4373922;32;19960;-40
2021/11/23 13:23:23;;;;;;;;;;;1.00;41.00;;;;;;4373676;32;20037;-39
2021/11/23 13:26:01;;;;;;;;;;;0.90;41.00;;;;;;4373736;32;19978;-38
2021/11/23 13:28:32;;;;;;;;;;;0.90;41.30;;;;;;4373746;32;19997;-39
2021/11/23 13:31:05;;;;;;;;;;;0.80;41.30;;;;;;4373666;32;20050;-39
2021/11/23 13:33:43;;;;;;;;;;;0.80;41.30;;;;;;4373386;32;20032;-40
2021/11/23 13:36:17;;;;;;;;;;;0.80;42.10;;;;;;4347787;32;20023;-39
2021/11/23 13:38:44;;;;;;;;;;;0.70;41.40;;;;;;4360505;32;19962;-39
2021/11/23 13:41:17;;;;;;;;;;;0.60;41.60;;;;;;4374069;32;20013;-39
2021/11/23 13:43:57;;;;;;;;;;;0.60;41.70;;;;;;4373349;32;20456;-40
2021/11/23 13:46:24;;;;;;;;;;;0.50;41.80;;;;;;4373770;32;20103;-40
2021/11/23 13:49:08;;;;;;;;;;;0.50;41.90;;;;;;4373484;32;20031;-37
2021/11/23 13:51:34;;;;;;;;;;;0.50;41.90;;;;;;4373116;32;20374;-40
2021/11/23 13:54:14;;;;;;;;;;;0.40;41.90;;;;;;4372926;32;19965;-43
2021/11/23 13:56:51;;;;;;;;;;;0.40;42.00;;;;;;4373417;32;19977;-40
2021/11/23 13:59:19;;;;;;;;;;;0.40;42.10;;;;;;4373325;32;19973;-39
2021/11/23 14:01:56;;;;;;;;;;;0.30;42.30;;;;;;4372935;32;20450;-40
2021/11/23 14:04:26;;;;;;;;;;;0.30;42.30;;;;;;4373297;32;19965;-39
2021/11/23 14:07:04;;;;;;;;;;;0.20;42.40;;;;;;4373189;32;19986;-40
2021/11/23 14:09:53;;;;;;;;;;;0.20;42.50;;;;;;4372906;32;20100;-40
2021/11/23 14:12:43;;;;;;;;;;;0.20;42.60;;;;;;4373020;32;20030;-40
2021/11/23 14:15:18;;;;;;;;;;;0.20;42.60;;;;;;4348849;32;20002;-40
2021/11/23 14:17:56;;;;;;;;;;;0.10;42.70;;;;;;4355203;32;20549;-39
2021/11/23 14:20:24;;;;;;;;;;;0.10;42.60;;;;;;4355268;32;20023;-40
2021/11/23 14:22:50;;;;;;;;;;;0.20;42.70;;;;;;4356074;32;20415;-41
2021/11/23 14:25:23;;;;;;;;;;;0.20;42.50;;;;;;4356765;32;20394;-41
2021/11/23 14:28:01;;;;;;;;;;;0.20;42.60;;;;;;4355862;32;19997;-38
2021/11/23 14:30:27;;;;;;;;;;;0.20;42.80;;;;;;4355466;32;19974;-41
2021/11/23 14:32:54;;;;;;;;;;;0.20;42.70;;;;;;4355637;32;20481;-40
2021/11/23 14:35:20;;;;;;;;;;;0.20;42.80;;;;;;4355604;32;20399;-39
2021/11/23 14:37:46;;;;;;;;;;;0.10;42.80;;;;;;4355275;32;19988;-40
2021/11/23 14:40:13;;;;;;;;;;;0.20;42.90;;;;;;4354839;32;19962;-42
2021/11/23 14:42:39;;;;;;;;;;;0.10;42.90;;;;;;4355316;32;19967;-40